Flugplatz Everswinkel (UL)

Hier findest Du alle Informationen zum Flugplatz Everswinkel (UL).

Informationen für Piloten zum Flugplatz Everswinkel

Hier findest Du alle relevanten Informationen, die Du als Pilot benötigst, um Everswinkel anzufliegen.

Flugplatz: Everswinkel ICAO-Code: UL Flugplatz
Frequenz Turm: 123,425 Mhz GAFOR Gebiet: 32
Frequenz Ground: 123,425 Mhz Mogas: nein
Platzrunde: N 1000 ft Landegebühr: 0 €
Platzhöhe: Sunrise: 06:26 Uhr UTC
Pisten: 07/25 - 200(400) m x 20 m, GRAS Sunset: 16:57 Uhr UTC

Mitglieder, die in Everswinkel fliegen

Flugwetter am Flugplatz Everswinkel

Die METAR Information stammen aus EDDG (29.76 km entfernt).

METAR Code:
2024/02/19 08:20
EDDG 190820Z AUTO 24006KT 8000 FEW007 BKN025 OVC036 08/07 Q1025 REDZ TEMPO 4000 DZ

Flugschulen am Flugplatz Everswinkel

Am Flugplatz Everswinkel gibt es leider keine Flugschule.

Benachbarte Flugplätze und Flugschulen

Es gibt 18 weitere Flugplätze in einem Umkreis von 50 km um den Flugplatz Everswinkel.

Jetzt anmelden

Passwort vergessen

Umfrage Archiv

Wie häufig haltet Ihr die Halbkreisflugregel ein?

Eher häufig!
34.7 %
Immer!
32.2 %
Hin und wieder!
15.8 %
Nie!
10.4 %
Eher selten!
6.9 %
Stimmen: 202 | Diskussion
Anzeige: Roland Aircraft
Statistik Alle Mitglieder

Aktuell sind 28 Besucher online, davon 2 Mitglieder und 26 Gäste.


Mitglieder online:
fred3456.2  franzzahn 

Anzeige: EasyVFR